Time;durP1;ratioP1;P1;durP2;ratioP2;P2;SDS_P1;SDS_P2;PMS_P1;PMS_P2;Temp;Humidity;BMP_temperature;BMP_pressure;BME280_temperature;BME280_humidity;BME280_pressure;Samples;Min_cycle;Max_cycle;Signal;HPM_P1;HPM_P2
2022/01/17 00:03:54;;;;;;;;;;;15.50;33.90;;;;;;8367102;28;19916;-48
2022/01/17 00:07:54;;;;;;;;;;;15.60;34.00;;;;;;8367703;28;19924;-47
2022/01/17 00:11:56;;;;;;;;;;;15.60;34.00;;;;;;8367386;28;19924;-48
2022/01/17 00:16:13;;;;;;;;;;;15.60;33.90;;;;;;8366644;28;19929;-48
2022/01/17 00:20:17;;;;;;;;;;;15.60;33.90;;;;;;8367384;28;20381;-47
2022/01/17 00:24:19;;;;;;;;;;;15.60;33.90;;;;;;8366977;28;19936;-47
2022/01/17 00:28:19;;;;;;;;;;;15.60;33.90;;;;;;8366477;28;20314;-47
2022/01/17 00:32:20;;;;;;;;;;;15.60;33.90;;;;;;8366714;28;19921;-47
2022/01/17 00:36:20;;;;;;;;;;;15.60;33.90;;;;;;8366893;28;20385;-49
2022/01/17 00:40:22;;;;;;;;;;;15.60;33.90;;;;;;8366321;28;19917;-48
2022/01/17 00:44:23;;;;;;;;;;;15.60;33.90;;;;;;8366661;28;20338;-48
2022/01/17 00:48:24;;;;;;;;;;;15.60;33.90;;;;;;8366551;28;19920;-49
2022/01/17 00:52:24;;;;;;;;;;;15.60;33.90;;;;;;8365744;28;19967;-48
2022/01/17 00:56:25;;;;;;;;;;;15.60;33.90;;;;;;8365925;28;19925;-47
2022/01/17 01:00:26;;;;;;;;;;;15.60;33.90;;;;;;8366553;28;19923;-48
2022/01/17 01:04:26;;;;;;;;;;;15.60;33.90;;;;;;8364285;28;19917;-47
2022/01/17 01:08:26;;;;;;;;;;;15.60;33.90;;;;;;8365746;28;20408;-48
2022/01/17 01:12:27;;;;;;;;;;;15.60;33.90;;;;;;8365509;28;19923;-50
2022/01/17 01:16:34;;;;;;;;;;;15.60;33.90;;;;;;8364897;28;20016;-47
2022/01/17 01:29:00;;;;;;;;;;;15.60;34.00;;;;;;8342009;28;19974;-48
2022/01/17 01:33:00;;;;;;;;;;;15.60;34.00;;;;;;8364685;28;20007;-47
2022/01/17 01:37:04;;;;;;;;;;;15.60;34.00;;;;;;8364322;28;19921;-48
2022/01/17 01:41:04;;;;;;;;;;;15.60;34.00;;;;;;8364953;28;19917;-48
2022/01/17 01:45:07;;;;;;;;;;;15.60;34.00;;;;;;8364677;28;20011;-49
2022/01/17 01:49:08;;;;;;;;;;;15.60;34.00;;;;;;8364183;28;20278;-50
2022/01/17 01:53:08;;;;;;;;;;;15.60;34.00;;;;;;8364114;28;19996;-48
2022/01/17 01:57:09;;;;;;;;;;;15.60;34.00;;;;;;8364091;28;20279;-47
2022/01/17 02:01:09;;;;;;;;;;;15.60;34.00;;;;;;8363728;28;19923;-48
2022/01/17 02:05:10;;;;;;;;;;;15.60;34.00;;;;;;8364067;28;19928;-47
2022/01/17 02:09:11;;;;;;;;;;;15.60;34.00;;;;;;8363752;28;19932;-48
2022/01/17 02:13:11;;;;;;;;;;;15.60;34.50;;;;;;8350735;28;19948;-49
2022/01/17 02:17:12;;;;;;;;;;;15.60;34.00;;;;;;8363528;28;19927;-50
2022/01/17 02:21:18;;;;;;;;;;;15.60;34.00;;;;;;8363874;28;19971;-50
2022/01/17 02:25:18;;;;;;;;;;;15.60;34.00;;;;;;8364283;28;20046;-49
2022/01/17 02:29:19;;;;;;;;;;;15.60;34.00;;;;;;8363437;28;19967;-49
2022/01/17 02:33:20;;;;;;;;;;;15.60;34.60;;;;;;8363277;28;19921;-49
2022/01/17 02:37:20;;;;;;;;;;;15.60;34.00;;;;;;8362708;28;19917;-47
2022/01/17 02:41:21;;;;;;;;;;;15.60;34.00;;;;;;8363392;28;19975;-48
2022/01/17 02:45:37;;;;;;;;;;;15.60;34.00;;;;;;8363174;28;20000;-47
2022/01/17 02:49:38;;;;;;;;;;;15.60;34.00;;;;;;8362688;28;19920;-48
2022/01/17 02:53:40;;;;;;;;;;;15.60;34.00;;;;;;8363109;28;19956;-48
2022/01/17 02:57:40;;;;;;;;;;;15.60;34.00;;;;;;8362941;28;19928;-48
2022/01/17 03:01:41;;;;;;;;;;;15.60;34.00;;;;;;8362263;28;20369;-47
2022/01/17 03:05:42;;;;;;;;;;;15.60;34.00;;;;;;8362972;28;19920;-46
2022/01/17 03:09:56;;;;;;;;;;;15.60;34.00;;;;;;8362867;28;19924;-48
2022/01/17 03:13:58;;;;;;;;;;;15.60;34.10;;;;;;8362349;28;19925;-47
2022/01/17 03:17:59;;;;;;;;;;;15.60;34.10;;;;;;8362489;28;19916;-49
2022/01/17 03:21:59;;;;;;;;;;;15.60;34.10;;;;;;8362107;28;19921;-52
2022/01/17 03:25:59;;;;;;;;;;;15.60;34.10;;;;;;8362918;28;19956;-49
2022/01/17 03:30:00;;;;;;;;;;;15.60;34.00;;;;;;8368831;28;19924;-47
2022/01/17 03:34:00;;;;;;;;;;;15.60;34.00;;;;;;8368261;28;19925;-47
2022/01/17 03:38:01;;;;;;;;;;;15.60;34.00;;;;;;8368715;28;19928;-48
2022/01/17 03:42:01;;;;;;;;;;;15.60;34.00;;;;;;8368348;28;19913;-50
2022/01/17 03:46:02;;;;;;;;;;;15.60;34.00;;;;;;8368036;28;19917;-48
2022/01/17 03:50:05;;;;;;;;;;;15.60;34.00;;;;;;8368294;28;19921;-47
2022/01/17 03:54:06;;;;;;;;;;;15.60;34.00;;;;;;8368127;28;20378;-49
2022/01/17 03:58:07;;;;;;;;;;;15.60;34.00;;;;;;8367521;28;20358;-47
2022/01/17 04:02:08;;;;;;;;;;;15.60;34.00;;;;;;8367740;28;19939;-48
2022/01/17 04:06:08;;;;;;;;;;;15.60;34.10;;;;;;8367868;28;19917;-50
2022/01/17 04:10:09;;;;;;;;;;;15.60;34.00;;;;;;8367259;28;19967;-50
2022/01/17 04:14:10;;;;;;;;;;;15.60;34.10;;;;;;8367379;28;20306;-48
2022/01/17 04:18:11;;;;;;;;;;;15.60;34.10;;;;;;8367191;28;19943;-48
2022/01/17 04:22:11;;;;;;;;;;;15.60;34.10;;;;;;8366810;28;19916;-47
2022/01/17 04:26:12;;;;;;;;;;;15.60;34.10;;;;;;8367307;28;19917;-48
2022/01/17 04:30:16;;;;;;;;;;;15.60;34.20;;;;;;8367092;28;19916;-48
2022/01/17 04:34:16;;;;;;;;;;;15.60;34.10;;;;;;8366257;28;20316;-48
2022/01/17 04:38:17;;;;;;;;;;;15.60;34.20;;;;;;8366480;28;19921;-47
2022/01/17 04:42:25;;;;;;;;;;;15.60;34.20;;;;;;8366640;28;20275;-48
2022/01/17 04:46:26;;;;;;;;;;;15.60;34.20;;;;;;8367227;28;19963;-49
2022/01/17 04:50:27;;;;;;;;;;;15.60;34.20;;;;;;8366252;28;19921;-47
2022/01/17 04:54:41;;;;;;;;;;;15.60;34.10;;;;;;8366349;28;19921;-48
2022/01/17 04:58:42;;;;;;;;;;;15.60;34.10;;;;;;8366187;28;19924;-48
2022/01/17 05:02:43;;;;;;;;;;;15.60;34.10;;;;;;8365944;28;19917;-48
2022/01/17 05:06:43;;;;;;;;;;;15.60;34.10;;;;;;8334981;28;19963;-47
2022/01/17 05:10:51;;;;;;;;;;;15.60;34.10;;;;;;8359303;28;19917;-48
2022/01/17 05:14:53;;;;;;;;;;;15.60;34.10;;;;;;8366807;28;19925;-48
2022/01/17 05:23:12;;;;;;;;;;;15.70;34.10;;;;;;8365699;28;19939;-52
2022/01/17 05:27:13;;;;;;;;;;;15.60;34.10;;;;;;8365307;28;19916;-50
2022/01/17 05:31:15;;;;;;;;;;;15.60;34.10;;;;;;8364501;28;19917;-47
2022/01/17 05:35:17;;;;;;;;;;;15.60;34.10;;;;;;8364837;28;20386;-49
2022/01/17 05:39:17;;;;;;;;;;;15.60;34.20;;;;;;8364975;28;19917;-48
2022/01/17 05:43:18;;;;;;;;;;;15.60;34.20;;;;;;8364215;28;20448;-50
2022/01/17 05:47:19;;;;;;;;;;;15.60;34.20;;;;;;8364802;28;19918;-48
2022/01/17 05:51:19;;;;;;;;;;;15.60;34.20;;;;;;8363876;28;19921;-48
2022/01/17 05:55:20;;;;;;;;;;;15.60;34.20;;;;;;8363833;28;20023;-50
2022/01/17 05:59:20;;;;;;;;;;;15.50;34.10;;;;;;8364371;28;20010;-49
2022/01/17 06:03:21;;;;;;;;;;;15.50;34.20;;;;;;8364297;28;20003;-48
2022/01/17 06:07:21;;;;;;;;;;;15.50;34.20;;;;;;8363906;28;19913;-49
2022/01/17 06:11:22;;;;;;;;;;;15.50;34.20;;;;;;8363880;28;19916;-48
2022/01/17 06:15:22;;;;;;;;;;;15.50;34.20;;;;;;8363453;28;19925;-49
2022/01/17 06:19:23;;;;;;;;;;;15.50;34.20;;;;;;8363147;28;20382;-49
2022/01/17 06:23:25;;;;;;;;;;;15.50;34.20;;;;;;8363521;28;19920;-48
2022/01/17 06:27:25;;;;;;;;;;;15.50;34.20;;;;;;8363759;28;20317;-47
2022/01/17 06:31:26;;;;;;;;;;;15.50;34.20;;;;;;8362886;28;19936;-49
2022/01/17 06:35:26;;;;;;;;;;;15.50;34.20;;;;;;8363257;28;19924;-47
2022/01/17 06:39:27;;;;;;;;;;;15.50;34.30;;;;;;8363397;28;19963;-49
2022/01/17 06:43:27;;;;;;;;;;;15.50;34.30;;;;;;8362785;28;19924;-48
2022/01/17 06:47:27;;;;;;;;;;;15.50;34.30;;;;;;8363298;28;19920;-48
2022/01/17 06:51:28;;;;;;;;;;;15.50;34.30;;;;;;8344967;28;20046;-47
2022/01/17 06:55:29;;;;;;;;;;;15.50;34.80;;;;;;8362477;28;19933;-50
2022/01/17 06:59:29;;;;;;;;;;;15.50;34.30;;;;;;8362995;28;19921;-47
2022/01/17 07:03:30;;;;;;;;;;;15.50;34.20;;;;;;8367390;28;19921;-48
2022/01/17 07:07:30;;;;;;;;;;;15.60;34.30;;;;;;8369007;28;20445;-50
2022/01/17 07:11:37;;;;;;;;;;;15.60;34.20;;;;;;8369219;28;20365;-51
2022/01/17 07:15:38;;;;;;;;;;;15.60;34.20;;;;;;8369164;28;19925;-49
2022/01/17 07:19:39;;;;;;;;;;;15.70;34.20;;;;;;8368519;28;19978;-49
2022/01/17 07:23:39;;;;;;;;;;;15.60;34.20;;;;;;8369388;28;19955;-48
2022/01/17 07:27:42;;;;;;;;;;;15.70;34.20;;;;;;8368918;28;20107;-51
2022/01/17 07:31:42;;;;;;;;;;;15.70;34.20;;;;;;8368068;28;19967;-49
2022/01/17 07:35:45;;;;;;;;;;;15.70;34.20;;;;;;8368404;28;19924;-49
2022/01/17 07:39:46;;;;;;;;;;;15.70;34.20;;;;;;8367810;28;19970;-46
2022/01/17 07:43:48;;;;;;;;;;;15.60;34.20;;;;;;8368178;28;19924;-46
2022/01/17 07:51:56;;;;;;;;;;;15.60;34.20;;;;;;8367453;28;19920;-52
2022/01/17 07:55:57;;;;;;;;;;;15.60;34.20;;;;;;8367895;28;19931;-48
2022/01/17 07:59:57;;;;;;;;;;;15.60;34.20;;;;;;8368062;28;20370;-48
2022/01/17 08:03:58;;;;;;;;;;;15.60;34.20;;;;;;8367093;28;20382;-48
2022/01/17 08:07:58;;;;;;;;;;;15.60;34.20;;;;;;8366893;28;20414;-48
2022/01/17 08:12:00;;;;;;;;;;;15.60;34.30;;;;;;8361298;28;19924;-50
2022/01/17 08:16:02;;;;;;;;;;;15.60;34.20;;;;;;8366619;28;19936;-47
2022/01/17 08:20:03;;;;;;;;;;;15.60;34.20;;;;;;8366959;28;20272;-47
2022/01/17 08:24:04;;;;;;;;;;;15.60;34.20;;;;;;8366839;28;20426;-50
2022/01/17 08:28:05;;;;;;;;;;;15.60;34.20;;;;;;8366557;28;19917;-50
2022/01/17 08:32:07;;;;;;;;;;;15.60;34.30;;;;;;8366596;28;19943;-49
2022/01/17 08:36:07;;;;;;;;;;;15.60;34.30;;;;;;8366529;28;19929;-50
2022/01/17 08:40:08;;;;;;;;;;;15.60;34.30;;;;;;8365913;28;20003;-49
2022/01/17 08:44:09;;;;;;;;;;;15.60;34.30;;;;;;8366588;28;19928;-50
2022/01/17 08:48:11;;;;;;;;;;;15.60;34.30;;;;;;8366432;28;20301;-52
2022/01/17 08:52:13;;;;;;;;;;;15.60;34.30;;;;;;8365682;28;20361;-49
2022/01/17 08:56:13;;;;;;;;;;;15.60;34.30;;;;;;8365820;28;19925;-50
2022/01/17 09:00:15;;;;;;;;;;;15.60;34.30;;;;;;8365814;28;20340;-52
2022/01/17 09:04:15;;;;;;;;;;;15.60;34.30;;;;;;8365398;28;19916;-52
2022/01/17 09:08:16;;;;;;;;;;;15.60;34.30;;;;;;8365750;28;20000;-50
2022/01/17 09:12:17;;;;;;;;;;;15.60;34.30;;;;;;8365552;28;19919;-48
2022/01/17 09:16:17;;;;;;;;;;;15.60;34.40;;;;;;8364768;28;19928;-49
2022/01/17 09:20:18;;;;;;;;;;;15.60;34.40;;;;;;8365103;28;20374;-48
2022/01/17 09:24:18;;;;;;;;;;;15.60;34.30;;;;;;8364457;28;19917;-48
2022/01/17 09:28:19;;;;;;;;;;;15.60;34.30;;;;;;8363613;28;19924;-52
2022/01/17 09:32:20;;;;;;;;;;;15.60;34.30;;;;;;8365034;28;19999;-49
2022/01/17 09:36:21;;;;;;;;;;;15.60;34.40;;;;;;8364658;28;19936;-49
2022/01/17 09:40:21;;;;;;;;;;;15.60;34.40;;;;;;8364234;28;19952;-51
2022/01/17 09:44:22;;;;;;;;;;;15.60;34.40;;;;;;8364754;28;19959;-47
2022/01/17 09:48:24;;;;;;;;;;;15.60;34.40;;;;;;8364805;28;19995;-52
2022/01/17 09:52:34;;;;;;;;;;;15.60;34.30;;;;;;8364272;28;20008;-51
2022/01/17 09:56:35;;;;;;;;;;;15.60;34.30;;;;;;8368790;28;19968;-49
2022/01/17 10:00:40;;;;;;;;;;;15.60;34.30;;;;;;8364036;28;19920;-49
2022/01/17 10:04:41;;;;;;;;;;;15.60;34.30;;;;;;8363272;28;19924;-50
2022/01/17 10:08:41;;;;;;;;;;;15.60;34.40;;;;;;8363726;28;20453;-50
2022/01/17 10:12:42;;;;;;;;;;;15.60;34.40;;;;;;8363571;28;19975;-47
2022/01/17 10:16:42;;;;;;;;;;;15.60;34.40;;;;;;8363101;28;20271;-47
2022/01/17 10:20:46;;;;;;;;;;;15.60;34.40;;;;;;8363484;28;20266;-50
2022/01/17 10:24:58;;;;;;;;;;;15.60;34.40;;;;;;8363120;28;19913;-46
2022/01/17 10:37:15;;;;;;;;;;;15.70;34.40;;;;;;8363985;28;19956;-49
2022/01/17 10:41:23;;;;;;;;;;;15.70;34.40;;;;;;8363137;28;20385;-47
2022/01/17 10:45:31;;;;;;;;;;;15.70;34.40;;;;;;8362994;28;19946;-51
2022/01/17 10:49:50;;;;;;;;;;;15.70;34.40;;;;;;8362748;28;19920;-47
2022/01/17 10:53:52;;;;;;;;;;;15.70;34.40;;;;;;8362915;28;20014;-49
2022/01/17 10:57:54;;;;;;;;;;;15.70;34.40;;;;;;8362337;28;20003;-47
2022/01/17 11:01:55;;;;;;;;;;;15.70;34.40;;;;;;8362685;28;19978;-47
2022/01/17 11:05:57;;;;;;;;;;;15.70;34.40;;;;;;8360026;28;19916;-48
2022/01/17 11:10:01;;;;;;;;;;;15.70;34.40;;;;;;8362143;28;19928;-51
2022/01/17 11:14:06;;;;;;;;;;;15.70;34.50;;;;;;8363178;28;20451;-50
2022/01/17 11:18:12;;;;;;;;;;;15.70;34.50;;;;;;8362883;28;19917;-49
2022/01/17 11:22:13;;;;;;;;;;;15.70;34.50;;;;;;8362126;28;19917;-49
2022/01/17 11:26:14;;;;;;;;;;;15.70;34.50;;;;;;8362774;28;19924;-50
2022/01/17 11:30:16;;;;;;;;;;;15.70;34.60;;;;;;8362440;28;19913;-49
2022/01/17 11:34:19;;;;;;;;;;;15.70;34.50;;;;;;8362032;28;20015;-48
2022/01/17 11:38:27;;;;;;;;;;;15.80;34.50;;;;;;8362589;28;19920;-50
2022/01/17 11:42:30;;;;;;;;;;;15.80;34.50;;;;;;8362400;28;20378;-50
2022/01/17 11:46:34;;;;;;;;;;;15.90;34.50;;;;;;8361644;28;19928;-48
2022/01/17 11:50:41;;;;;;;;;;;15.90;34.50;;;;;;8367766;28;19921;-48
2022/01/17 11:54:45;;;;;;;;;;;15.90;34.50;;;;;;8370123;28;20074;-49
2022/01/17 11:58:46;;;;;;;;;;;15.90;34.50;;;;;;8367679;28;19924;-47
2022/01/17 12:02:49;;;;;;;;;;;15.90;34.50;;;;;;8367826;28;20294;-48
2022/01/17 12:06:58;;;;;;;;;;;16.00;34.60;;;;;;8367399;28;19977;-49
2022/01/17 12:11:00;;;;;;;;;;;16.00;34.50;;;;;;8367809;28;19917;-48
2022/01/17 12:15:05;;;;;;;;;;;16.00;34.50;;;;;;8367629;28;19951;-49
2022/01/17 12:19:07;;;;;;;;;;;16.00;34.50;;;;;;8369014;28;20367;-50
2022/01/17 12:23:22;;;;;;;;;;;16.00;34.60;;;;;;8367504;28;20282;-49
2022/01/17 12:27:26;;;;;;;;;;;16.00;34.60;;;;;;8367221;28;19971;-49
2022/01/17 12:31:40;;;;;;;;;;;16.00;34.60;;;;;;8366686;28;19924;-50
2022/01/17 12:35:46;;;;;;;;;;;16.00;34.60;;;;;;8366936;28;19930;-52
2022/01/17 12:39:47;;;;;;;;;;;16.00;34.60;;;;;;8369335;28;19940;-48
2022/01/17 12:43:47;;;;;;;;;;;16.00;34.60;;;;;;8366796;28;19996;-50
2022/01/17 12:47:48;;;;;;;;;;;16.00;34.70;;;;;;8366683;28;20003;-47
2022/01/17 12:51:50;;;;;;;;;;;16.00;34.70;;;;;;8366358;28;19927;-47
2022/01/17 12:55:51;;;;;;;;;;;16.00;34.70;;;;;;8366336;28;19928;-48
2022/01/17 12:59:52;;;;;;;;;;;16.10;34.70;;;;;;8366398;28;20375;-48
2022/01/17 13:04:01;;;;;;;;;;;16.00;34.70;;;;;;8339916;28;19924;-48
2022/01/17 13:08:02;;;;;;;;;;;16.00;34.70;;;;;;8333103;28;20290;-49
2022/01/17 13:12:05;;;;;;;;;;;16.00;34.70;;;;;;8332825;28;19998;-48
2022/01/17 13:16:07;;;;;;;;;;;16.00;34.70;;;;;;8332138;28;19925;-49
2022/01/17 13:20:08;;;;;;;;;;;16.00;34.70;;;;;;8333001;28;20333;-48
2022/01/17 13:24:22;;;;;;;;;;;16.10;34.70;;;;;;8332587;28;20287;-48
2022/01/17 13:28:22;;;;;;;;;;;16.10;34.70;;;;;;8332929;28;19924;-47
2022/01/17 13:32:31;;;;;;;;;;;16.10;34.80;;;;;;8332335;28;20290;-48
2022/01/17 13:36:35;;;;;;;;;;;16.10;34.80;;;;;;8331928;28;20024;-49
2022/01/17 13:40:36;;;;;;;;;;;16.10;34.80;;;;;;8331600;28;19913;-48
2022/01/17 13:44:38;;;;;;;;;;;16.10;34.80;;;;;;8331972;28;19917;-49
2022/01/17 13:48:39;;;;;;;;;;;16.10;34.80;;;;;;8331763;28;19927;-48
2022/01/17 13:52:40;;;;;;;;;;;16.10;34.80;;;;;;8330951;28;19921;-49
2022/01/17 13:56:40;;;;;;;;;;;16.00;34.80;;;;;;8331306;28;19933;-48
2022/01/17 14:00:44;;;;;;;;;;;16.00;34.80;;;;;;8330727;28;21288;-48
2022/01/17 14:04:45;;;;;;;;;;;16.10;34.80;;;;;;8330465;28;19925;-49
2022/01/17 14:08:48;;;;;;;;;;;16.00;34.80;;;;;;8329593;28;19917;-50
2022/01/17 14:12:51;;;;;;;;;;;16.00;34.80;;;;;;8329904;28;19952;-49
2022/01/17 14:16:53;;;;;;;;;;;16.00;34.90;;;;;;8330481;28;19931;-51
2022/01/17 14:20:54;;;;;;;;;;;16.10;34.90;;;;;;8330733;28;19917;-48
2022/01/17 14:24:56;;;;;;;;;;;16.10;35.40;;;;;;8329779;28;20382;-48
2022/01/17 14:28:56;;;;;;;;;;;16.10;34.90;;;;;;8330208;28;19963;-49
2022/01/17 14:33:13;;;;;;;;;;;16.10;34.90;;;;;;8330203;28;19959;-47
2022/01/17 14:37:15;;;;;;;;;;;16.10;34.90;;;;;;8329690;28;19925;-49
2022/01/17 14:41:31;;;;;;;;;;;16.10;34.90;;;;;;8330571;28;20039;-49
2022/01/17 14:45:33;;;;;;;;;;;16.10;34.90;;;;;;8332257;28;19917;-49
2022/01/17 14:49:36;;;;;;;;;;;16.10;34.90;;;;;;8329218;28;19928;-51
2022/01/17 14:53:36;;;;;;;;;;;16.10;34.90;;;;;;8329970;28;19917;-48
2022/01/17 15:06:06;;;;;;;;;;;16.10;34.90;;;;;;8334541;28;19913;-48
2022/01/17 15:10:06;;;;;;;;;;;16.10;34.90;;;;;;8356500;28;20386;-48
2022/01/17 15:14:07;;;;;;;;;;;16.10;34.90;;;;;;8362536;28;19924;-51
2022/01/17 15:18:13;;;;;;;;;;;16.10;34.90;;;;;;8362486;28;20336;-50
2022/01/17 15:22:13;;;;;;;;;;;16.10;34.90;;;;;;8364435;28;19922;-48
2022/01/17 15:26:14;;;;;;;;;;;16.10;34.90;;;;;;8369180;28;19966;-47
2022/01/17 15:30:15;;;;;;;;;;;16.10;34.90;;;;;;8368912;28;19924;-49
2022/01/17 15:34:15;;;;;;;;;;;16.10;34.90;;;;;;8368264;28;19925;-49
2022/01/17 15:38:16;;;;;;;;;;;16.10;34.90;;;;;;8368523;28;19917;-51
2022/01/17 15:42:17;;;;;;;;;;;16.10;34.90;;;;;;8368238;28;19919;-50
2022/01/17 15:46:18;;;;;;;;;;;16.10;34.90;;;;;;8368118;28;19924;-49
2022/01/17 15:50:18;;;;;;;;;;;16.10;34.90;;;;;;8368236;28;20401;-48
2022/01/17 15:54:19;;;;;;;;;;;16.10;34.90;;;;;;8368115;28;20304;-49
2022/01/17 15:58:19;;;;;;;;;;;16.10;34.90;;;;;;8367129;28;19916;-47
2022/01/17 16:02:20;;;;;;;;;;;16.10;34.90;;;;;;8367441;28;20286;-49
2022/01/17 16:06:20;;;;;;;;;;;16.10;34.90;;;;;;8367880;28;20337;-48
2022/01/17 16:10:21;;;;;;;;;;;16.10;35.00;;;;;;8366990;28;19963;-51
2022/01/17 16:14:22;;;;;;;;;;;16.10;34.90;;;;;;8367350;28;20025;-52
2022/01/17 16:18:22;;;;;;;;;;;16.10;34.90;;;;;;8367521;28;20328;-48
2022/01/17 16:22:23;;;;;;;;;;;16.10;35.00;;;;;;8366738;28;19963;-49
2022/01/17 16:26:24;;;;;;;;;;;16.10;35.00;;;;;;8367294;28;19976;-49
2022/01/17 16:30:24;;;;;;;;;;;16.10;35.00;;;;;;8367018;28;19924;-46
2022/01/17 16:34:25;;;;;;;;;;;16.10;34.90;;;;;;8365816;28;19952;-50
2022/01/17 16:38:25;;;;;;;;;;;16.10;35.00;;;;;;8366649;28;20368;-49
2022/01/17 16:42:26;;;;;;;;;;;16.10;35.00;;;;;;8366519;28;20397;-49
2022/01/17 16:46:26;;;;;;;;;;;16.00;35.00;;;;;;8366342;28;19912;-49
2022/01/17 16:50:27;;;;;;;;;;;16.00;35.00;;;;;;8366545;28;19921;-49
2022/01/17 16:54:28;;;;;;;;;;;16.00;35.00;;;;;;8366206;28;19921;-50
2022/01/17 16:58:31;;;;;;;;;;;16.10;35.00;;;;;;8365681;28;19916;-49
2022/01/17 17:02:32;;;;;;;;;;;16.00;35.00;;;;;;8365830;28;19920;-48
2022/01/17 17:06:32;;;;;;;;;;;16.00;35.00;;;;;;8352017;28;19918;-48
2022/01/17 17:10:33;;;;;;;;;;;16.10;35.00;;;;;;8359483;28;19916;-48
2022/01/17 17:14:33;;;;;;;;;;;16.00;35.00;;;;;;8365428;28;19928;-47
2022/01/17 17:18:36;;;;;;;;;;;16.00;35.00;;;;;;8365536;28;19920;-50
2022/01/17 17:22:39;;;;;;;;;;;16.00;35.00;;;;;;8365225;28;19917;-47
2022/01/17 17:26:40;;;;;;;;;;;16.00;35.00;;;;;;8347555;28;19917;-49
2022/01/17 17:30:41;;;;;;;;;;;16.10;35.10;;;;;;8364951;28;19928;-48
2022/01/17 17:34:42;;;;;;;;;;;16.00;35.00;;;;;;8364176;28;19929;-48
2022/01/17 17:38:42;;;;;;;;;;;16.00;35.00;;;;;;8365104;28;19913;-48
2022/01/17 17:42:43;;;;;;;;;;;16.00;35.00;;;;;;8364396;28;19920;-49
2022/01/17 17:46:43;;;;;;;;;;;16.00;35.00;;;;;;8363385;28;19917;-48
2022/01/17 17:50:44;;;;;;;;;;;16.10;35.00;;;;;;8364245;28;19974;-48
2022/01/17 17:54:45;;;;;;;;;;;16.00;35.00;;;;;;8364207;28;20020;-48
2022/01/17 17:58:45;;;;;;;;;;;16.10;35.00;;;;;;8363722;28;19917;-48
2022/01/17 18:02:46;;;;;;;;;;;16.00;35.00;;;;;;8364189;28;20758;-48
2022/01/17 18:06:48;;;;;;;;;;;16.10;35.00;;;;;;8363264;28;19925;-50
2022/01/17 18:10:49;;;;;;;;;;;16.10;35.00;;;;;;8363721;28;20302;-52
2022/01/17 18:14:49;;;;;;;;;;;16.10;35.00;;;;;;8363458;28;20058;-49
2022/01/17 18:18:50;;;;;;;;;;;16.10;35.00;;;;;;8363247;28;19920;-49
2022/01/17 18:22:50;;;;;;;;;;;16.10;34.90;;;;;;8363496;28;19934;-48
2022/01/17 18:26:51;;;;;;;;;;;16.10;34.90;;;;;;8363686;28;20342;-48
2022/01/17 18:30:51;;;;;;;;;;;16.10;35.00;;;;;;8362849;28;19917;-52
2022/01/17 18:34:53;;;;;;;;;;;16.10;34.90;;;;;;8363049;28;20279;-52
2022/01/17 18:38:59;;;;;;;;;;;16.10;35.00;;;;;;8363254;28;19913;-48
2022/01/17 18:42:59;;;;;;;;;;;16.10;35.00;;;;;;8362661;28;20003;-52
2022/01/17 18:47:00;;;;;;;;;;;16.10;35.00;;;;;;8363212;28;20289;-50
2022/01/17 18:51:01;;;;;;;;;;;16.10;35.00;;;;;;8362765;28;19952;-49
2022/01/17 18:55:02;;;;;;;;;;;16.10;35.00;;;;;;8362145;28;19925;-51
2022/01/17 18:59:04;;;;;;;;;;;16.00;35.00;;;;;;8371904;28;19920;-50
2022/01/17 19:03:04;;;;;;;;;;;16.10;35.00;;;;;;8373750;28;20345;-51
2022/01/17 19:07:05;;;;;;;;;;;16.10;35.00;;;;;;8373542;28;19924;-48
2022/01/17 19:11:06;;;;;;;;;;;16.10;35.00;;;;;;8373810;28;19940;-48
2022/01/17 19:15:07;;;;;;;;;;;16.00;35.00;;;;;;8373702;28;19967;-50
2022/01/17 19:19:23;;;;;;;;;;;16.10;35.00;;;;;;8373233;28;20330;-48
2022/01/17 19:23:23;;;;;;;;;;;16.10;35.00;;;;;;8373662;28;19944;-49
2022/01/17 19:27:26;;;;;;;;;;;16.00;35.00;;;;;;8373715;28;19919;-49
2022/01/17 19:31:27;;;;;;;;;;;16.00;35.00;;;;;;8372875;28;19917;-49
2022/01/17 19:35:27;;;;;;;;;;;16.10;35.00;;;;;;8373358;28;19982;-49
2022/01/17 19:39:28;;;;;;;;;;;16.00;35.00;;;;;;8373421;28;19994;-49
2022/01/17 19:43:28;;;;;;;;;;;16.00;35.00;;;;;;8372891;28;19996;-52
2022/01/17 19:47:29;;;;;;;;;;;16.00;35.00;;;;;;8373544;28;19924;-51
2022/01/17 19:51:31;;;;;;;;;;;16.00;34.90;;;;;;8373169;28;20364;-49
2022/01/17 19:55:31;;;;;;;;;;;16.00;34.90;;;;;;8372632;28;19931;-49
2022/01/17 19:59:32;;;;;;;;;;;16.00;35.00;;;;;;8373329;28;19920;-49
2022/01/17 20:03:32;;;;;;;;;;;16.00;35.00;;;;;;8373148;28;19917;-49
2022/01/17 20:07:33;;;;;;;;;;;16.00;35.00;;;;;;8349832;28;19959;-50
2022/01/17 20:11:34;;;;;;;;;;;16.00;35.00;;;;;;8360027;28;19969;-48
2022/01/17 20:15:34;;;;;;;;;;;16.00;34.90;;;;;;8367400;28;19921;-47
2022/01/17 20:19:35;;;;;;;;;;;16.00;35.00;;;;;;8366995;28;20009;-50
2022/01/17 20:23:35;;;;;;;;;;;16.00;35.00;;;;;;8367124;28;19912;-48
2022/01/17 20:27:36;;;;;;;;;;;16.00;35.00;;;;;;8367484;28;19917;-49
2022/01/17 20:31:36;;;;;;;;;;;16.00;35.00;;;;;;8366435;28;19917;-49
2022/01/17 20:35:39;;;;;;;;;;;16.00;35.00;;;;;;8366840;28;19964;-46
2022/01/17 20:39:39;;;;;;;;;;;16.00;35.00;;;;;;8366902;28;19913;-48
2022/01/17 20:43:40;;;;;;;;;;;16.00;35.00;;;;;;8366454;28;19924;-49
2022/01/17 20:47:41;;;;;;;;;;;16.00;35.00;;;;;;8366759;28;20000;-48
2022/01/17 20:51:41;;;;;;;;;;;16.00;35.00;;;;;;8366524;28;19978;-48
2022/01/17 20:55:42;;;;;;;;;;;16.00;35.00;;;;;;8365694;28;20385;-48
2022/01/17 20:59:43;;;;;;;;;;;16.00;35.00;;;;;;8366082;28;19913;-48
2022/01/17 21:03:43;;;;;;;;;;;16.00;34.90;;;;;;8366296;28;19927;-48
2022/01/17 21:07:44;;;;;;;;;;;16.00;35.00;;;;;;8365200;28;20247;-49
2022/01/17 21:11:45;;;;;;;;;;;16.00;35.00;;;;;;8366059;28;20289;-49
2022/01/17 21:15:45;;;;;;;;;;;16.00;34.90;;;;;;8365787;28;19967;-48
2022/01/17 21:19:46;;;;;;;;;;;16.00;34.90;;;;;;8363955;28;19917;-48
2022/01/17 21:23:46;;;;;;;;;;;16.00;35.00;;;;;;8365789;28;19913;-50
2022/01/17 21:27:47;;;;;;;;;;;16.00;35.00;;;;;;8364860;28;19917;-49
2022/01/17 21:31:48;;;;;;;;;;;16.00;35.00;;;;;;8365105;28;19919;-50
2022/01/17 21:35:48;;;;;;;;;;;16.00;35.00;;;;;;8365149;28;20015;-49
2022/01/17 21:39:49;;;;;;;;;;;16.00;35.00;;;;;;8364467;28;19968;-49
2022/01/17 21:43:49;;;;;;;;;;;16.00;35.00;;;;;;8365323;28;19958;-49
2022/01/17 21:47:50;;;;;;;;;;;16.00;35.00;;;;;;8364786;28;20285;-49
2022/01/17 21:51:51;;;;;;;;;;;16.00;35.00;;;;;;8363896;28;19967;-49
2022/01/17 21:55:51;;;;;;;;;;;16.00;35.00;;;;;;8364145;28;19948;-50
2022/01/17 21:59:52;;;;;;;;;;;15.90;35.00;;;;;;8364510;28;19917;-48
2022/01/17 22:03:52;;;;;;;;;;;16.00;35.00;;;;;;8364198;28;20362;-49
2022/01/17 22:07:53;;;;;;;;;;;15.90;35.00;;;;;;8364132;28;19916;-50
2022/01/17 22:11:53;;;;;;;;;;;16.00;35.00;;;;;;8364654;28;20242;-48
2022/01/17 22:15:57;;;;;;;;;;;16.00;34.90;;;;;;8363650;28;19967;-49
2022/01/17 22:19:58;;;;;;;;;;;16.00;34.90;;;;;;8364087;28;19917;-49
2022/01/17 22:23:58;;;;;;;;;;;16.00;34.90;;;;;;8364092;28;20210;-47
2022/01/17 22:27:59;;;;;;;;;;;16.00;34.90;;;;;;8362994;28;19924;-50
2022/01/17 22:31:59;;;;;;;;;;;16.00;34.80;;;;;;8362868;28;19916;-47
2022/01/17 22:36:00;;;;;;;;;;;16.00;34.80;;;;;;8363218;28;19978;-47
2022/01/17 22:40:00;;;;;;;;;;;16.10;34.80;;;;;;8362770;28;19924;-51
2022/01/17 22:44:01;;;;;;;;;;;16.10;34.80;;;;;;8362155;28;20141;-48
2022/01/17 22:48:02;;;;;;;;;;;16.10;34.80;;;;;;8362803;28;19943;-48
2022/01/17 22:52:03;;;;;;;;;;;16.10;34.90;;;;;;8362412;28;20326;-49
2022/01/17 22:56:04;;;;;;;;;;;16.00;34.90;;;;;;8362887;28;19929;-48
2022/01/17 23:00:05;;;;;;;;;;;16.00;34.80;;;;;;8363033;28;19916;-49
2022/01/17 23:04:06;;;;;;;;;;;16.00;34.90;;;;;;8361495;28;19919;-50
2022/01/17 23:08:07;;;;;;;;;;;16.00;34.90;;;;;;8361755;28;20358;-49
2022/01/17 23:12:07;;;;;;;;;;;16.00;34.90;;;;;;8362872;28;19997;-49
2022/01/17 23:16:12;;;;;;;;;;;16.00;34.90;;;;;;8362246;28;19975;-49
2022/01/17 23:20:15;;;;;;;;;;;16.00;34.90;;;;;;8362676;28;19921;-48
2022/01/17 23:24:20;;;;;;;;;;;15.90;34.90;;;;;;8362853;28;20274;-48
2022/01/17 23:28:21;;;;;;;;;;;16.00;34.90;;;;;;8362339;28;20289;-49
2022/01/17 23:36:41;;;;;;;;;;;15.90;34.90;;;;;;8362482;28;19932;-48
2022/01/17 23:40:41;;;;;;;;;;;15.90;34.90;;;;;;8361658;28;19920;-48
2022/01/17 23:44:42;;;;;;;;;;;15.90;34.90;;;;;;8365530;28;19916;-49
2022/01/17 23:48:42;;;;;;;;;;;15.90;34.90;;;;;;8368592;28;20012;-51
2022/01/17 23:52:42;;;;;;;;;;;15.90;35.00;;;;;;8367728;28;20004;-49
2022/01/17 23:56:45;;;;;;;;;;;15.90;35.00;;;;;;8367925;28;20019;-48
